sensor_id;sensor_type;location;lat;lon;timestamp;temperature;humidity
12421;DHT22;6275;43.688;1.408;2022-08-21T02:53:11;12.80;99.90
12421;DHT22;6275;43.688;1.408;2022-08-21T02:55:39;12.70;99.90
12421;DHT22;6275;43.688;1.408;2022-08-21T02:58:07;12.80;99.90
12421;DHT22;6275;43.688;1.408;2022-08-21T03:00:36;12.90;99.90
12421;DHT22;6275;43.688;1.408;2022-08-21T03:03:04;12.90;99.90
12421;DHT22;6275;43.688;1.408;2022-08-21T03:05:34;12.90;99.90
12421;DHT22;6275;43.688;1.408;2022-08-21T03:08:03;12.90;99.90
12421;DHT22;6275;43.688;1.408;2022-08-21T03:10:31;12.90;99.90
12421;DHT22;6275;43.688;1.408;2022-08-21T03:12:58;12.90;99.90
12421;DHT22;6275;43.688;1.408;2022-08-21T03:15:25;12.90;99.90
12421;DHT22;6275;43.688;1.408;2022-08-21T03:17:52;12.80;99.90
12421;DHT22;6275;43.688;1.408;2022-08-21T03:20:23;12.80;99.90
12421;DHT22;6275;43.688;1.408;2022-08-21T03:22:51;12.70;99.90
12421;DHT22;6275;43.688;1.408;2022-08-21T03:25:20;12.80;99.90
12421;DHT22;6275;43.688;1.408;2022-08-21T03:28:08;12.90;99.90
12421;DHT22;6275;43.688;1.408;2022-08-21T03:30:40;12.80;99.90
12421;DHT22;6275;43.688;1.408;2022-08-21T03:33:07;12.80;99.90
12421;DHT22;6275;43.688;1.408;2022-08-21T03:35:38;12.70;99.90
12421;DHT22;6275;43.688;1.408;2022-08-21T03:38:05;12.70;99.90
12421;DHT22;6275;43.688;1.408;2022-08-21T03:40:32;12.60;99.90
12421;DHT22;6275;43.688;1.408;2022-08-21T03:42:59;12.40;99.90
12421;DHT22;6275;43.688;1.408;2022-08-21T03:45:27;12.20;99.90
12421;DHT22;6275;43.688;1.408;2022-08-21T03:47:56;12.10;99.90
12421;DHT22;6275;43.688;1.408;2022-08-21T03:50:25;12.10;99.90
12421;DHT22;6275;43.688;1.408;2022-08-21T03:52:52;12.00;99.90
12421;DHT22;6275;43.688;1.408;2022-08-21T03:55:20;12.20;99.90
12421;DHT22;6275;43.688;1.408;2022-08-21T03:57:47;12.30;99.90
12421;DHT22;6275;43.688;1.408;2022-08-21T04:00:15;12.30;99.90
12421;DHT22;6275;43.688;1.408;2022-08-21T04:02:42;12.30;99.90
12421;DHT22;6275;43.688;1.408;2022-08-21T04:05:11;12.30;99.90
12421;DHT22;6275;43.688;1.408;2022-08-21T04:07:39;12.20;99.90
12421;DHT22;6275;43.688;1.408;2022-08-21T04:10:07;12.20;99.90
12421;DHT22;6275;43.688;1.408;2022-08-21T04:12:34;12.20;99.90
12421;DHT22;6275;43.688;1.408;2022-08-21T04:15:01;12.30;99.90
12421;DHT22;6275;43.688;1.408;2022-08-21T04:17:28;12.30;99.90
12421;DHT22;6275;43.688;1.408;2022-08-21T04:19:55;12.30;99.90
12421;DHT22;6275;43.688;1.408;2022-08-21T04:22:23;12.30;99.90
12421;DHT22;6275;43.688;1.408;2022-08-21T04:24:50;12.30;99.90
12421;DHT22;6275;43.688;1.408;2022-08-21T04:27:17;12.30;99.90
12421;DHT22;6275;43.688;1.408;2022-08-21T04:29:43;12.30;99.90
12421;DHT22;6275;43.688;1.408;2022-08-21T04:32:10;12.20;99.90
12421;DHT22;6275;43.688;1.408;2022-08-21T04:34:37;12.20;99.90
12421;DHT22;6275;43.688;1.408;2022-08-21T04:37:04;12.20;99.90
12421;DHT22;6275;43.688;1.408;2022-08-21T04:39:31;12.30;99.90
12421;DHT22;6275;43.688;1.408;2022-08-21T04:41:58;12.30;99.90
12421;DHT22;6275;43.688;1.408;2022-08-21T04:44:25;12.30;99.90
12421;DHT22;6275;43.688;1.408;2022-08-21T04:46:52;12.30;99.90
12421;DHT22;6275;43.688;1.408;2022-08-21T04:49:19;12.30;99.90
12421;DHT22;6275;43.688;1.408;2022-08-21T04:51:46;12.30;99.90
12421;DHT22;6275;43.688;1.408;2022-08-21T04:54:18;12.20;99.90
12421;DHT22;6275;43.688;1.408;2022-08-21T04:56:56;12.20;99.90
12421;DHT22;6275;43.688;1.408;2022-08-21T04:59:28;12.10;99.90
12421;DHT22;6275;43.688;1.408;2022-08-21T05:01:57;12.20;99.90
12421;DHT22;6275;43.688;1.408;2022-08-21T05:04:28;12.20;99.90
12421;DHT22;6275;43.688;1.408;2022-08-21T05:06:59;12.10;99.90
12421;DHT22;6275;43.688;1.408;2022-08-21T05:09:28;12.00;99.90
12421;DHT22;6275;43.688;1.408;2022-08-21T05:11:55;11.90;99.90
12421;DHT22;6275;43.688;1.408;2022-08-21T05:14:22;12.00;99.90
12421;DHT22;6275;43.688;1.408;2022-08-21T05:16:49;12.20;99.90
12421;DHT22;6275;43.688;1.408;2022-08-21T05:19:16;12.40;99.90
12421;DHT22;6275;43.688;1.408;2022-08-21T05:21:44;12.60;99.90
12421;DHT22;6275;43.688;1.408;2022-08-21T05:24:12;12.50;99.90
12421;DHT22;6275;43.688;1.408;2022-08-21T05:26:39;12.60;99.90
12421;DHT22;6275;43.688;1.408;2022-08-21T05:29:14;12.50;99.90
12421;DHT22;6275;43.688;1.408;2022-08-21T05:31:42;12.50;99.90
12421;DHT22;6275;43.688;1.408;2022-08-21T05:34:10;12.50;99.90
12421;DHT22;6275;43.688;1.408;2022-08-21T05:36:37;12.70;99.90
12421;DHT22;6275;43.688;1.408;2022-08-21T05:39:04;12.80;99.90
12421;DHT22;6275;43.688;1.408;2022-08-21T05:41:31;12.80;99.90
12421;DHT22;6275;43.688;1.408;2022-08-21T05:43:59;12.90;99.90
12421;DHT22;6275;43.688;1.408;2022-08-21T05:46:26;13.00;99.90
12421;DHT22;6275;43.688;1.408;2022-08-21T05:48:53;13.10;99.90
12421;DHT22;6275;43.688;1.408;2022-08-21T05:51:20;13.30;99.90
12421;DHT22;6275;43.688;1.408;2022-08-21T05:53:47;13.60;99.90
12421;DHT22;6275;43.688;1.408;2022-08-21T05:56:14;13.90;99.90
12421;DHT22;6275;43.688;1.408;2022-08-21T05:58:42;14.00;99.90
12421;DHT22;6275;43.688;1.408;2022-08-21T06:01:09;14.20;99.90
12421;DHT22;6275;43.688;1.408;2022-08-21T06:03:40;14.30;99.90
12421;DHT22;6275;43.688;1.408;2022-08-21T06:06:07;14.50;99.90
12421;DHT22;6275;43.688;1.408;2022-08-21T06:08:35;14.60;99.90
12421;DHT22;6275;43.688;1.408;2022-08-21T06:11:03;14.80;99.90
12421;DHT22;6275;43.688;1.408;2022-08-21T06:13:30;14.90;99.90
12421;DHT22;6275;43.688;1.408;2022-08-21T06:16:10;15.10;99.90
12421;DHT22;6275;43.688;1.408;2022-08-21T06:18:42;15.20;99.90
12421;DHT22;6275;43.688;1.408;2022-08-21T06:21:10;15.40;99.90
12421;DHT22;6275;43.688;1.408;2022-08-21T06:23:38;15.50;99.90
12421;DHT22;6275;43.688;1.408;2022-08-21T06:26:06;15.60;99.90
12421;DHT22;6275;43.688;1.408;2022-08-21T06:28:35;15.70;99.90
12421;DHT22;6275;43.688;1.408;2022-08-21T06:31:14;15.90;99.90
12421;DHT22;6275;43.688;1.408;2022-08-21T06:33:42;16.00;99.90
12421;DHT22;6275;43.688;1.408;2022-08-21T06:36:09;16.10;99.90
12421;DHT22;6275;43.688;1.408;2022-08-21T06:38:37;16.10;99.90
12421;DHT22;6275;43.688;1.408;2022-08-21T06:41:05;16.20;99.90
12421;DHT22;6275;43.688;1.408;2022-08-21T06:43:33;16.30;99.90
12421;DHT22;6275;43.688;1.408;2022-08-21T06:46:06;16.30;99.90
12421;DHT22;6275;43.688;1.408;2022-08-21T06:48:34;16.40;99.90
12421;DHT22;6275;43.688;1.408;2022-08-21T06:51:01;16.50;99.90
12421;DHT22;6275;43.688;1.408;2022-08-21T06:53:29;16.60;99.90
12421;DHT22;6275;43.688;1.408;2022-08-21T06:55:56;16.70;99.90
12421;DHT22;6275;43.688;1.408;2022-08-21T06:58:23;16.80;99.90
12421;DHT22;6275;43.688;1.408;2022-08-21T07:00:50;16.90;99.90
12421;DHT22;6275;43.688;1.408;2022-08-21T07:03:30;17.10;99.90
12421;DHT22;6275;43.688;1.408;2022-08-21T07:05:57;17.10;99.90
12421;DHT22;6275;43.688;1.408;2022-08-21T07:08:26;17.30;99.90
12421;DHT22;6275;43.688;1.408;2022-08-21T07:10:57;17.40;99.90
12421;DHT22;6275;43.688;1.408;2022-08-21T07:13:26;17.50;99.90
12421;DHT22;6275;43.688;1.408;2022-08-21T07:15:53;17.60;99.90
12421;DHT22;6275;43.688;1.408;2022-08-21T07:18:20;17.70;99.90
12421;DHT22;6275;43.688;1.408;2022-08-21T07:20:47;17.80;99.90
12421;DHT22;6275;43.688;1.408;2022-08-21T07:23:37;17.80;99.90
12421;DHT22;6275;43.688;1.408;2022-08-21T07:26:05;18.10;99.90
12421;DHT22;6275;43.688;1.408;2022-08-21T07:28:33;18.20;99.90
12421;DHT22;6275;43.688;1.408;2022-08-21T07:31:01;18.40;99.90
12421;DHT22;6275;43.688;1.408;2022-08-21T07:33:30;18.50;99.90
12421;DHT22;6275;43.688;1.408;2022-08-21T07:35:58;18.70;99.90
12421;DHT22;6275;43.688;1.408;2022-08-21T07:38:25;18.80;99.90
12421;DHT22;6275;43.688;1.408;2022-08-21T22:31:14;15.70;99.90
